sensor_id;sensor_type;location;lat;lon;timestamp;temperature;humidity
1994;DHT22;998;49.906;10.908;2024-03-02T00:00:31;8.00;99.90
1994;DHT22;998;49.906;10.908;2024-03-02T00:02:59;8.00;99.90
1994;DHT22;998;49.906;10.908;2024-03-02T00:05:26;7.90;99.90
1994;DHT22;998;49.906;10.908;2024-03-02T00:07:55;8.00;99.90
1994;DHT22;998;49.906;10.908;2024-03-02T00:10:24;8.00;99.90
1994;DHT22;998;49.906;10.908;2024-03-02T00:12:56;8.00;99.90
1994;DHT22;998;49.906;10.908;2024-03-02T00:15:41;7.80;99.90
1994;DHT22;998;49.906;10.908;2024-03-02T00:18:11;7.90;99.90
1994;DHT22;998;49.906;10.908;2024-03-02T00:20:40;7.90;99.90
1994;DHT22;998;49.906;10.908;2024-03-02T00:23:08;7.90;99.90
1994;DHT22;998;49.906;10.908;2024-03-02T00:25:41;8.00;99.90
1994;DHT22;998;49.906;10.908;2024-03-02T00:28:19;8.10;99.90
1994;DHT22;998;49.906;10.908;2024-03-02T00:30:57;7.80;99.90
1994;DHT22;998;49.906;10.908;2024-03-02T00:33:27;7.90;99.90
1994;DHT22;998;49.906;10.908;2024-03-02T00:35:55;7.90;99.90
1994;DHT22;998;49.906;10.908;2024-03-02T00:38:23;7.90;99.90
1994;DHT22;998;49.906;10.908;2024-03-02T00:40:50;7.90;99.90
1994;DHT22;998;49.906;10.908;2024-03-02T00:43:42;7.90;99.90
1994;DHT22;998;49.906;10.908;2024-03-02T00:46:11;7.90;99.90
1994;DHT22;998;49.906;10.908;2024-03-02T00:48:47;7.90;99.90
1994;DHT22;998;49.906;10.908;2024-03-02T00:51:15;7.90;99.90
1994;DHT22;998;49.906;10.908;2024-03-02T00:53:42;7.70;99.90
1994;DHT22;998;49.906;10.908;2024-03-02T00:56:10;7.90;99.90
1994;DHT22;998;49.906;10.908;2024-03-02T00:58:40;7.90;99.90
1994;DHT22;998;49.906;10.908;2024-03-02T01:01:07;8.00;99.90
1994;DHT22;998;49.906;10.908;2024-03-02T01:03:35;8.10;99.90
1994;DHT22;998;49.906;10.908;2024-03-02T01:06:04;8.00;99.90
1994;DHT22;998;49.906;10.908;2024-03-02T01:08:33;7.80;99.90
1994;DHT22;998;49.906;10.908;2024-03-02T01:11:01;8.00;99.90
1994;DHT22;998;49.906;10.908;2024-03-02T01:13:29;7.90;99.90
1994;DHT22;998;49.906;10.908;2024-03-02T01:15:58;7.90;99.90
1994;DHT22;998;49.906;10.908;2024-03-02T01:18:25;8.00;99.90
1994;DHT22;998;49.906;10.908;2024-03-02T01:20:53;8.00;99.90
1994;DHT22;998;49.906;10.908;2024-03-02T01:23:27;8.00;99.90
1994;DHT22;998;49.906;10.908;2024-03-02T01:25:54;8.00;99.90
1994;DHT22;998;49.906;10.908;2024-03-02T01:28:30;7.90;99.90
1994;DHT22;998;49.906;10.908;2024-03-02T01:30:58;7.90;99.90
1994;DHT22;998;49.906;10.908;2024-03-02T01:33:27;8.00;99.90
1994;DHT22;998;49.906;10.908;2024-03-02T01:35:55;7.80;99.90
1994;DHT22;998;49.906;10.908;2024-03-02T01:38:23;7.90;99.90
1994;DHT22;998;49.906;10.908;2024-03-02T01:40:50;8.00;99.90
1994;DHT22;998;49.906;10.908;2024-03-02T01:43:17;8.00;99.90
1994;DHT22;998;49.906;10.908;2024-03-02T01:45:45;8.00;99.90
1994;DHT22;998;49.906;10.908;2024-03-02T01:48:14;8.00;99.90
1994;DHT22;998;49.906;10.908;2024-03-02T01:50:42;8.00;99.90
1994;DHT22;998;49.906;10.908;2024-03-02T01:53:09;7.90;99.90
1994;DHT22;998;49.906;10.908;2024-03-02T01:55:37;8.00;99.90
1994;DHT22;998;49.906;10.908;2024-03-02T01:58:10;7.70;99.90
1994;DHT22;998;49.906;10.908;2024-03-02T02:00:37;8.00;99.90
1994;DHT22;998;49.906;10.908;2024-03-02T02:03:04;8.00;99.90
1994;DHT22;998;49.906;10.908;2024-03-02T02:05:34;8.00;99.90
1994;DHT22;998;49.906;10.908;2024-03-02T02:08:02;8.10;99.90
1994;DHT22;998;49.906;10.908;2024-03-02T02:10:29;7.80;99.90
1994;DHT22;998;49.906;10.908;2024-03-02T02:12:57;8.00;99.90
1994;DHT22;998;49.906;10.908;2024-03-02T02:15:28;8.00;99.90
1994;DHT22;998;49.906;10.908;2024-03-02T02:17:56;8.00;99.90
1994;DHT22;998;49.906;10.908;2024-03-02T02:20:24;8.10;99.90
1994;DHT22;998;49.906;10.908;2024-03-02T02:23:00;8.10;99.90
1994;DHT22;998;49.906;10.908;2024-03-02T02:25:37;8.10;99.90
1994;DHT22;998;49.906;10.908;2024-03-02T02:28:11;8.10;99.90
1994;DHT22;998;49.906;10.908;2024-03-02T02:30:39;8.10;99.90
1994;DHT22;998;49.906;10.908;2024-03-02T02:33:06;8.10;99.90
1994;DHT22;998;49.906;10.908;2024-03-02T02:35:33;8.00;99.90
1994;DHT22;998;49.906;10.908;2024-03-02T02:38:02;7.80;99.90
1994;DHT22;998;49.906;10.908;2024-03-02T02:40:30;8.10;99.90
1994;DHT22;998;49.906;10.908;2024-03-02T02:42:57;8.10;99.90
1994;DHT22;998;49.906;10.908;2024-03-02T02:45:25;8.10;99.90
1994;DHT22;998;49.906;10.908;2024-03-02T02:47:52;8.10;99.90
1994;DHT22;998;49.906;10.908;2024-03-02T02:50:20;8.10;99.90
1994;DHT22;998;49.906;10.908;2024-03-02T02:52:48;8.10;99.90
1994;DHT22;998;49.906;10.908;2024-03-02T02:55:17;8.10;99.90
1994;DHT22;998;49.906;10.908;2024-03-02T02:57:45;8.20;99.90
1994;DHT22;998;49.906;10.908;2024-03-02T03:00:14;8.20;99.90
1994;DHT22;998;49.906;10.908;2024-03-02T03:02:42;8.10;99.90
1994;DHT22;998;49.906;10.908;2024-03-02T03:05:10;8.20;99.90
1994;DHT22;998;49.906;10.908;2024-03-02T03:07:37;8.10;99.90
1994;DHT22;998;49.906;10.908;2024-03-02T03:10:07;8.20;99.90
1994;DHT22;998;49.906;10.908;2024-03-02T03:12:36;8.20;99.90
1994;DHT22;998;49.906;10.908;2024-03-02T03:15:04;8.20;99.90
1994;DHT22;998;49.906;10.908;2024-03-02T03:17:32;8.20;99.90
1994;DHT22;998;49.906;10.908;2024-03-02T03:19:59;8.10;99.90
1994;DHT22;998;49.906;10.908;2024-03-02T03:22:34;8.10;99.90
1994;DHT22;998;49.906;10.908;2024-03-02T03:25:02;8.10;99.90
1994;DHT22;998;49.906;10.908;2024-03-02T03:27:31;8.20;99.90
1994;DHT22;998;49.906;10.908;2024-03-02T03:29:59;8.20;99.90
1994;DHT22;998;49.906;10.908;2024-03-02T03:32:26;8.10;99.90
1994;DHT22;998;49.906;10.908;2024-03-02T03:34:54;8.10;99.90
1994;DHT22;998;49.906;10.908;2024-03-02T03:37:21;8.10;99.90
1994;DHT22;998;49.906;10.908;2024-03-02T03:39:50;8.00;99.90
1994;DHT22;998;49.906;10.908;2024-03-02T03:42:17;8.10;99.90
1994;DHT22;998;49.906;10.908;2024-03-02T03:44:44;8.10;99.90
1994;DHT22;998;49.906;10.908;2024-03-02T03:47:13;8.00;99.90
1994;DHT22;998;49.906;10.908;2024-03-02T03:49:41;8.10;99.90
1994;DHT22;998;49.906;10.908;2024-03-02T03:52:09;8.10;99.90
1994;DHT22;998;49.906;10.908;2024-03-02T03:54:35;8.50;99.90
1994;DHT22;998;49.906;10.908;2024-03-02T03:57:04;8.20;99.90
1994;DHT22;998;49.906;10.908;2024-03-02T03:59:44;8.00;99.90
1994;DHT22;998;49.906;10.908;2024-03-02T04:02:13;8.10;99.90
1994;DHT22;998;49.906;10.908;2024-03-02T04:04:41;7.90;99.90
1994;DHT22;998;49.906;10.908;2024-03-02T04:07:09;8.10;99.90
1994;DHT22;998;49.906;10.908;2024-03-02T04:09:37;8.10;99.90
1994;DHT22;998;49.906;10.908;2024-03-02T04:12:04;8.00;99.90
1994;DHT22;998;49.906;10.908;2024-03-02T04:14:48;8.00;99.90
1994;DHT22;998;49.906;10.908;2024-03-02T04:17:17;8.00;99.90
1994;DHT22;998;49.906;10.908;2024-03-02T04:19:44;7.90;99.90
1994;DHT22;998;49.906;10.908;2024-03-02T04:22:11;8.00;99.90
1994;DHT22;998;49.906;10.908;2024-03-02T04:24:39;7.90;99.90
1994;DHT22;998;49.906;10.908;2024-03-02T04:27:07;7.90;99.90
1994;DHT22;998;49.906;10.908;2024-03-02T04:29:37;7.90;99.90
1994;DHT22;998;49.906;10.908;2024-03-02T04:32:07;7.90;99.90
1994;DHT22;998;49.906;10.908;2024-03-02T04:34:43;7.90;99.90
1994;DHT22;998;49.906;10.908;2024-03-02T04:37:11;7.90;99.90
1994;DHT22;998;49.906;10.908;2024-03-02T04:39:40;7.60;99.90
1994;DHT22;998;49.906;10.908;2024-03-02T04:42:13;7.80;99.90
1994;DHT22;998;49.906;10.908;2024-03-02T04:44:40;7.90;99.90
1994;DHT22;998;49.906;10.908;2024-03-02T04:47:08;7.90;99.90
1994;DHT22;998;49.906;10.908;2024-03-02T04:49:36;7.80;99.90
1994;DHT22;998;49.906;10.908;2024-03-02T04:52:04;7.90;99.90
1994;DHT22;998;49.906;10.908;2024-03-02T04:54:32;7.80;99.90
1994;DHT22;998;49.906;10.908;2024-03-02T04:57:19;7.70;99.90
1994;DHT22;998;49.906;10.908;2024-03-02T04:59:46;7.90;99.90
1994;DHT22;998;49.906;10.908;2024-03-02T05:02:13;7.80;99.90
1994;DHT22;998;49.906;10.908;2024-03-02T05:04:42;7.80;99.90
1994;DHT22;998;49.906;10.908;2024-03-02T05:07:10;7.80;99.90
1994;DHT22;998;49.906;10.908;2024-03-02T05:09:37;7.70;99.90
1994;DHT22;998;49.906;10.908;2024-03-02T05:12:05;7.90;99.90
1994;DHT22;998;49.906;10.908;2024-03-02T05:14:49;7.90;99.90
1994;DHT22;998;49.906;10.908;2024-03-02T05:17:16;7.80;99.90
1994;DHT22;998;49.906;10.908;2024-03-02T05:19:45;7.90;99.90
1994;DHT22;998;49.906;10.908;2024-03-02T05:22:12;7.80;99.90
1994;DHT22;998;49.906;10.908;2024-03-02T05:24:40;7.80;99.90
1994;DHT22;998;49.906;10.908;2024-03-02T05:27:07;7.80;99.90
1994;DHT22;998;49.906;10.908;2024-03-02T05:29:35;7.70;99.90
1994;DHT22;998;49.906;10.908;2024-03-02T05:32:02;7.90;99.90
1994;DHT22;998;49.906;10.908;2024-03-02T05:34:29;7.80;99.90
1994;DHT22;998;49.906;10.908;2024-03-02T05:37:00;7.90;99.90
1994;DHT22;998;49.906;10.908;2024-03-02T05:39:27;7.80;99.90
1994;DHT22;998;49.906;10.908;2024-03-02T05:41:55;7.80;99.90
1994;DHT22;998;49.906;10.908;2024-03-02T05:44:22;7.80;99.90
1994;DHT22;998;49.906;10.908;2024-03-02T05:46:49;7.80;99.90
1994;DHT22;998;49.906;10.908;2024-03-02T05:49:16;7.90;99.90
1994;DHT22;998;49.906;10.908;2024-03-02T05:51:44;7.80;99.90
1994;DHT22;998;49.906;10.908;2024-03-02T05:54:13;8.00;99.90
1994;DHT22;998;49.906;10.908;2024-03-02T05:56:40;7.90;99.90
1994;DHT22;998;49.906;10.908;2024-03-02T05:59:08;7.70;99.90
1994;DHT22;998;49.906;10.908;2024-03-02T06:01:38;7.80;99.90
1994;DHT22;998;49.906;10.908;2024-03-02T06:04:06;7.60;99.90
1994;DHT22;998;49.906;10.908;2024-03-02T06:06:33;7.60;99.90
1994;DHT22;998;49.906;10.908;2024-03-02T06:09:01;7.70;99.90
1994;DHT22;998;49.906;10.908;2024-03-02T06:11:32;7.80;99.90
1994;DHT22;998;49.906;10.908;2024-03-02T06:13:59;7.80;99.90
1994;DHT22;998;49.906;10.908;2024-03-02T06:16:27;7.80;99.90
1994;DHT22;998;49.906;10.908;2024-03-02T06:18:54;7.80;99.90
1994;DHT22;998;49.906;10.908;2024-03-02T06:21:23;7.80;99.90
1994;DHT22;998;49.906;10.908;2024-03-02T06:23:51;7.70;99.90
1994;DHT22;998;49.906;10.908;2024-03-02T06:26:19;7.70;99.90
1994;DHT22;998;49.906;10.908;2024-03-02T06:28:48;7.80;99.90
1994;DHT22;998;49.906;10.908;2024-03-02T06:31:15;7.70;99.90
1994;DHT22;998;49.906;10.908;2024-03-02T06:33:42;7.80;99.90
1994;DHT22;998;49.906;10.908;2024-03-02T06:36:09;7.70;99.90
1994;DHT22;998;49.906;10.908;2024-03-02T06:38:37;7.80;99.90
1994;DHT22;998;49.906;10.908;2024-03-02T06:41:06;7.60;99.90
1994;DHT22;998;49.906;10.908;2024-03-02T06:43:33;7.80;99.90
1994;DHT22;998;49.906;10.908;2024-03-02T06:46:02;7.70;99.90
1994;DHT22;998;49.906;10.908;2024-03-02T06:48:30;8.30;99.90
1994;DHT22;998;49.906;10.908;2024-03-02T06:50:58;7.70;99.90
1994;DHT22;998;49.906;10.908;2024-03-02T06:53:25;7.70;99.90
1994;DHT22;998;49.906;10.908;2024-03-02T06:55:53;7.70;99.90
1994;DHT22;998;49.906;10.908;2024-03-02T06:58:23;7.70;99.90
1994;DHT22;998;49.906;10.908;2024-03-02T07:00:56;7.60;99.90
1994;DHT22;998;49.906;10.908;2024-03-02T07:03:24;7.70;99.90
1994;DHT22;998;49.906;10.908;2024-03-02T07:05:51;8.40;99.90
1994;DHT22;998;49.906;10.908;2024-03-02T07:08:19;7.70;99.90
1994;DHT22;998;49.906;10.908;2024-03-02T07:10:46;7.70;99.90
1994;DHT22;998;49.906;10.908;2024-03-02T07:13:14;7.70;99.90
1994;DHT22;998;49.906;10.908;2024-03-02T07:15:47;7.70;99.90
1994;DHT22;998;49.906;10.908;2024-03-02T07:18:46;7.70;99.90
1994;DHT22;998;49.906;10.908;2024-03-02T07:21:17;7.80;99.90
1994;DHT22;998;49.906;10.908;2024-03-02T07:23:45;7.80;99.90
1994;DHT22;998;49.906;10.908;2024-03-02T07:26:12;7.80;99.90
1994;DHT22;998;49.906;10.908;2024-03-02T07:28:40;7.90;99.90
1994;DHT22;998;49.906;10.908;2024-03-02T07:31:09;7.90;99.90
1994;DHT22;998;49.906;10.908;2024-03-02T07:33:39;8.00;99.90
1994;DHT22;998;49.906;10.908;2024-03-02T07:36:15;7.90;99.90
1994;DHT22;998;49.906;10.908;2024-03-02T07:38:46;7.90;99.90
1994;DHT22;998;49.906;10.908;2024-03-02T07:41:16;8.00;99.90
1994;DHT22;998;49.906;10.908;2024-03-02T07:43:44;8.10;99.90
1994;DHT22;998;49.906;10.908;2024-03-02T07:46:17;8.10;99.90
1994;DHT22;998;49.906;10.908;2024-03-02T07:48:44;8.30;99.90
1994;DHT22;998;49.906;10.908;2024-03-02T07:51:11;8.10;99.90
1994;DHT22;998;49.906;10.908;2024-03-02T07:53:41;8.20;99.90
1994;DHT22;998;49.906;10.908;2024-03-02T07:56:08;8.10;99.90
1994;DHT22;998;49.906;10.908;2024-03-02T07:58:36;8.20;99.90
1994;DHT22;998;49.906;10.908;2024-03-02T08:01:04;8.20;99.90
1994;DHT22;998;49.906;10.908;2024-03-02T08:03:31;8.20;99.90
1994;DHT22;998;49.906;10.908;2024-03-02T08:06:09;8.30;99.90
1994;DHT22;998;49.906;10.908;2024-03-02T08:08:35;8.50;99.90
1994;DHT22;998;49.906;10.908;2024-03-02T08:11:04;8.30;99.90
1994;DHT22;998;49.906;10.908;2024-03-02T08:13:32;8.20;99.90
1994;DHT22;998;49.906;10.908;2024-03-02T08:15:59;8.50;99.90
1994;DHT22;998;49.906;10.908;2024-03-02T08:18:29;8.50;99.90
1994;DHT22;998;49.906;10.908;2024-03-02T08:20:56;8.50;99.90
1994;DHT22;998;49.906;10.908;2024-03-02T08:23:24;8.50;99.90
1994;DHT22;998;49.906;10.908;2024-03-02T08:25:51;8.60;99.90
1994;DHT22;998;49.906;10.908;2024-03-02T08:28:20;8.70;99.90
1994;DHT22;998;49.906;10.908;2024-03-02T08:31:05;8.50;99.90
1994;DHT22;998;49.906;10.908;2024-03-02T08:33:33;8.90;99.90
1994;DHT22;998;49.906;10.908;2024-03-02T08:36:01;8.70;99.90
1994;DHT22;998;49.906;10.908;2024-03-02T08:38:28;8.80;99.90
1994;DHT22;998;49.906;10.908;2024-03-02T08:40:56;8.80;99.90
1994;DHT22;998;49.906;10.908;2024-03-02T08:43:25;8.90;99.90
1994;DHT22;998;49.906;10.908;2024-03-02T08:45:53;8.90;99.90
1994;DHT22;998;49.906;10.908;2024-03-02T08:48:20;8.90;99.90
1994;DHT22;998;49.906;10.908;2024-03-02T08:50:48;8.80;99.90
1994;DHT22;998;49.906;10.908;2024-03-02T08:53:15;9.10;99.90
1994;DHT22;998;49.906;10.908;2024-03-02T08:55:45;9.10;99.90
1994;DHT22;998;49.906;10.908;2024-03-02T08:58:18;9.10;99.90
1994;DHT22;998;49.906;10.908;2024-03-02T09:00:48;9.20;99.90
1994;DHT22;998;49.906;10.908;2024-03-02T09:03:29;9.20;99.90
1994;DHT22;998;49.906;10.908;2024-03-02T09:05:59;9.40;99.90
1994;DHT22;998;49.906;10.908;2024-03-02T09:08:26;9.40;99.90
1994;DHT22;998;49.906;10.908;2024-03-02T09:11:11;9.40;99.90
1994;DHT22;998;49.906;10.908;2024-03-02T09:13:39;10.60;99.90
1994;DHT22;998;49.906;10.908;2024-03-02T09:16:08;9.50;99.90
1994;DHT22;998;49.906;10.908;2024-03-02T09:18:36;9.50;99.90
1994;DHT22;998;49.906;10.908;2024-03-02T09:21:04;9.60;99.90
1994;DHT22;998;49.906;10.908;2024-03-02T09:23:32;9.50;99.90
1994;DHT22;998;49.906;10.908;2024-03-02T09:26:00;9.50;99.90
1994;DHT22;998;49.906;10.908;2024-03-02T09:28:27;9.60;99.90
1994;DHT22;998;49.906;10.908;2024-03-02T09:31:03;9.60;99.90
1994;DHT22;998;49.906;10.908;2024-03-02T09:33:32;9.60;99.90
1994;DHT22;998;49.906;10.908;2024-03-02T09:35:59;9.40;99.90
1994;DHT22;998;49.906;10.908;2024-03-02T09:38:32;9.60;99.90
1994;DHT22;998;49.906;10.908;2024-03-02T09:41:02;9.60;99.90
1994;DHT22;998;49.906;10.908;2024-03-02T09:43:29;9.50;99.90
1994;DHT22;998;49.906;10.908;2024-03-02T09:45:57;9.70;99.90
1994;DHT22;998;49.906;10.908;2024-03-02T09:48:24;9.70;99.90
1994;DHT22;998;49.906;10.908;2024-03-02T09:50:53;9.70;99.90
1994;DHT22;998;49.906;10.908;2024-03-02T09:53:21;9.70;99.90
1994;DHT22;998;49.906;10.908;2024-03-02T09:55:49;9.70;99.90
1994;DHT22;998;49.906;10.908;2024-03-02T09:58:16;9.90;99.90
1994;DHT22;998;49.906;10.908;2024-03-02T10:00:44;9.60;99.90
1994;DHT22;998;49.906;10.908;2024-03-02T10:03:12;10.00;99.90
1994;DHT22;998;49.906;10.908;2024-03-02T10:05:39;10.00;99.90
1994;DHT22;998;49.906;10.908;2024-03-02T10:08:08;10.00;99.90
1994;DHT22;998;49.906;10.908;2024-03-02T10:10:37;9.90;99.90
1994;DHT22;998;49.906;10.908;2024-03-02T10:13:06;10.00;99.90
1994;DHT22;998;49.906;10.908;2024-03-02T10:15:36;10.10;99.90
1994;DHT22;998;49.906;10.908;2024-03-02T10:18:04;10.00;99.90
1994;DHT22;998;49.906;10.908;2024-03-02T10:20:34;10.20;99.90
1994;DHT22;998;49.906;10.908;2024-03-02T10:23:11;10.20;99.90
1994;DHT22;998;49.906;10.908;2024-03-02T10:25:42;10.10;99.90
1994;DHT22;998;49.906;10.908;2024-03-02T10:28:11;10.20;99.90
1994;DHT22;998;49.906;10.908;2024-03-02T10:30:38;10.30;99.90
1994;DHT22;998;49.906;10.908;2024-03-02T10:33:06;11.20;99.90
1994;DHT22;998;49.906;10.908;2024-03-02T10:35:33;10.40;99.90
1994;DHT22;998;49.906;10.908;2024-03-02T10:38:04;10.40;99.90
1994;DHT22;998;49.906;10.908;2024-03-02T10:40:32;10.30;99.90
1994;DHT22;998;49.906;10.908;2024-03-02T10:43:01;10.30;99.90
1994;DHT22;998;49.906;10.908;2024-03-02T10:45:31;10.30;99.90
1994;DHT22;998;49.906;10.908;2024-03-02T10:48:04;10.30;99.90
1994;DHT22;998;49.906;10.908;2024-03-02T10:50:33;10.80;99.90
1994;DHT22;998;49.906;10.908;2024-03-02T10:53:07;10.70;99.90
1994;DHT22;998;49.906;10.908;2024-03-02T10:55:35;10.80;99.90
1994;DHT22;998;49.906;10.908;2024-03-02T10:58:04;10.60;99.90
1994;DHT22;998;49.906;10.908;2024-03-02T11:00:36;10.60;99.90
1994;DHT22;998;49.906;10.908;2024-03-02T11:03:06;10.70;99.90
1994;DHT22;998;49.906;10.908;2024-03-02T11:05:48;10.70;99.90
1994;DHT22;998;49.906;10.908;2024-03-02T11:08:20;10.80;99.90
1994;DHT22;998;49.906;10.908;2024-03-02T11:10:51;10.50;99.90
1994;DHT22;998;49.906;10.908;2024-03-02T11:13:30;11.30;99.90
1994;DHT22;998;49.906;10.908;2024-03-02T11:16:05;10.90;99.90
1994;DHT22;998;49.906;10.908;2024-03-02T11:18:33;10.90;99.90
1994;DHT22;998;49.906;10.908;2024-03-02T11:21:03;11.10;99.90
1994;DHT22;998;49.906;10.908;2024-03-02T11:23:34;11.00;99.90
1994;DHT22;998;49.906;10.908;2024-03-02T11:26:21;11.20;99.90
1994;DHT22;998;49.906;10.908;2024-03-02T11:28:50;11.30;99.90
1994;DHT22;998;49.906;10.908;2024-03-02T11:31:17;11.40;99.90
1994;DHT22;998;49.906;10.908;2024-03-02T11:34:17;11.40;99.90
1994;DHT22;998;49.906;10.908;2024-03-02T11:36:45;11.70;99.90
1994;DHT22;998;49.906;10.908;2024-03-02T11:39:19;11.70;99.90
1994;DHT22;998;49.906;10.908;2024-03-02T11:41:48;11.70;99.90
1994;DHT22;998;49.906;10.908;2024-03-02T11:44:15;11.60;99.90
1994;DHT22;998;49.906;10.908;2024-03-02T11:46:45;11.80;99.90
1994;DHT22;998;49.906;10.908;2024-03-02T11:49:36;11.70;99.90
1994;DHT22;998;49.906;10.908;2024-03-02T11:52:13;11.90;99.90
1994;DHT22;998;49.906;10.908;2024-03-02T11:54:41;11.90;99.90
1994;DHT22;998;49.906;10.908;2024-03-02T11:57:17;12.00;99.90
1994;DHT22;998;49.906;10.908;2024-03-02T11:59:45;11.90;99.90
1994;DHT22;998;49.906;10.908;2024-03-02T12:02:15;11.90;99.90
1994;DHT22;998;49.906;10.908;2024-03-02T12:04:44;12.50;99.90
1994;DHT22;998;49.906;10.908;2024-03-02T12:07:12;12.10;99.90
1994;DHT22;998;49.906;10.908;2024-03-02T12:09:45;12.10;99.90
1994;DHT22;998;49.906;10.908;2024-03-02T12:12:12;12.30;99.90
1994;DHT22;998;49.906;10.908;2024-03-02T12:14:51;12.20;99.90
1994;DHT22;998;49.906;10.908;2024-03-02T12:17:21;12.40;99.90
1994;DHT22;998;49.906;10.908;2024-03-02T12:19:55;12.50;99.90
1994;DHT22;998;49.906;10.908;2024-03-02T12:22:23;12.60;99.90
1994;DHT22;998;49.906;10.908;2024-03-02T12:24:50;12.90;99.90
1994;DHT22;998;49.906;10.908;2024-03-02T12:27:18;12.90;99.90
1994;DHT22;998;49.906;10.908;2024-03-02T12:29:48;12.90;99.90
1994;DHT22;998;49.906;10.908;2024-03-02T12:32:15;13.40;99.90
1994;DHT22;998;49.906;10.908;2024-03-02T12:34:47;13.70;99.90
1994;DHT22;998;49.906;10.908;2024-03-02T12:37:23;13.80;99.90
1994;DHT22;998;49.906;10.908;2024-03-02T12:39:50;13.70;99.90
1994;DHT22;998;49.906;10.908;2024-03-02T12:42:19;13.90;99.90
1994;DHT22;998;49.906;10.908;2024-03-02T12:44:48;14.10;99.90
1994;DHT22;998;49.906;10.908;2024-03-02T12:47:15;14.30;99.90
1994;DHT22;998;49.906;10.908;2024-03-02T12:49:43;14.40;99.90
1994;DHT22;998;49.906;10.908;2024-03-02T12:52:12;14.40;99.90
1994;DHT22;998;49.906;10.908;2024-03-02T12:54:40;14.70;99.90
1994;DHT22;998;49.906;10.908;2024-03-02T12:57:07;14.80;99.90
1994;DHT22;998;49.906;10.908;2024-03-02T12:59:35;14.90;99.90
1994;DHT22;998;49.906;10.908;2024-03-02T13:02:17;14.80;99.90
1994;DHT22;998;49.906;10.908;2024-03-02T13:04:44;14.70;99.90
1994;DHT22;998;49.906;10.908;2024-03-02T13:07:12;14.70;99.90
1994;DHT22;998;49.906;10.908;2024-03-02T13:09:41;14.60;99.90
1994;DHT22;998;49.906;10.908;2024-03-02T13:12:09;14.60;99.90
1994;DHT22;998;49.906;10.908;2024-03-02T13:14:36;14.80;99.90
1994;DHT22;998;49.906;10.908;2024-03-02T13:17:05;15.80;99.90
1994;DHT22;998;49.906;10.908;2024-03-02T13:19:35;15.20;99.90
1994;DHT22;998;49.906;10.908;2024-03-02T13:22:02;15.40;99.90
1994;DHT22;998;49.906;10.908;2024-03-02T13:24:31;15.70;99.90
1994;DHT22;998;49.906;10.908;2024-03-02T13:26:59;15.60;99.90
1994;DHT22;998;49.906;10.908;2024-03-02T13:29:26;15.70;99.90
1994;DHT22;998;49.906;10.908;2024-03-02T13:31:54;15.80;99.90
1994;DHT22;998;49.906;10.908;2024-03-02T13:34:26;16.10;99.90
1994;DHT22;998;49.906;10.908;2024-03-02T13:36:53;16.00;99.90
1994;DHT22;998;49.906;10.908;2024-03-02T13:39:21;16.00;99.90
1994;DHT22;998;49.906;10.908;2024-03-02T13:41:49;15.70;99.90
1994;DHT22;998;49.906;10.908;2024-03-02T13:44:23;15.60;99.90
1994;DHT22;998;49.906;10.908;2024-03-02T13:46:51;15.50;99.90
1994;DHT22;998;49.906;10.908;2024-03-02T13:49:18;15.10;99.90
1994;DHT22;998;49.906;10.908;2024-03-02T13:51:57;15.40;99.90
1994;DHT22;998;49.906;10.908;2024-03-02T13:54:26;15.20;99.90
1994;DHT22;998;49.906;10.908;2024-03-02T13:56:53;15.10;99.90
1994;DHT22;998;49.906;10.908;2024-03-02T13:59:23;15.40;99.90
1994;DHT22;998;49.906;10.908;2024-03-02T14:01:50;16.20;99.90
1994;DHT22;998;49.906;10.908;2024-03-02T14:04:18;15.30;99.90
1994;DHT22;998;49.906;10.908;2024-03-02T14:06:45;15.10;99.90
1994;DHT22;998;49.906;10.908;2024-03-02T14:09:14;15.30;99.90
1994;DHT22;998;49.906;10.908;2024-03-02T14:11:41;15.30;99.90
1994;DHT22;998;49.906;10.908;2024-03-02T14:14:08;14.90;99.90
1994;DHT22;998;49.906;10.908;2024-03-02T14:16:36;15.00;99.90
1994;DHT22;998;49.906;10.908;2024-03-02T14:19:03;15.00;99.90
1994;DHT22;998;49.906;10.908;2024-03-02T14:21:36;15.10;99.90
1994;DHT22;998;49.906;10.908;2024-03-02T14:24:04;15.00;99.90
1994;DHT22;998;49.906;10.908;2024-03-02T14:26:34;15.20;99.90
1994;DHT22;998;49.906;10.908;2024-03-02T14:29:05;15.40;99.90
1994;DHT22;998;49.906;10.908;2024-03-02T14:31:46;15.50;99.90
1994;DHT22;998;49.906;10.908;2024-03-02T14:34:14;15.60;99.90
1994;DHT22;998;49.906;10.908;2024-03-02T14:36:41;15.50;99.90
1994;DHT22;998;49.906;10.908;2024-03-02T14:39:10;15.70;99.90
1994;DHT22;998;49.906;10.908;2024-03-02T14:41:38;15.40;99.90
1994;DHT22;998;49.906;10.908;2024-03-02T14:44:06;15.70;99.90
1994;DHT22;998;49.906;10.908;2024-03-02T14:46:36;15.90;99.90
1994;DHT22;998;49.906;10.908;2024-03-02T14:49:04;16.10;99.90
1994;DHT22;998;49.906;10.908;2024-03-02T14:51:31;16.00;99.90
1994;DHT22;998;49.906;10.908;2024-03-02T14:54:14;16.00;99.90
1994;DHT22;998;49.906;10.908;2024-03-02T14:56:43;16.10;99.90
1994;DHT22;998;49.906;10.908;2024-03-02T14:59:10;16.00;99.90
1994;DHT22;998;49.906;10.908;2024-03-02T15:01:38;15.90;99.90
1994;DHT22;998;49.906;10.908;2024-03-02T15:04:05;16.30;99.90
1994;DHT22;998;49.906;10.908;2024-03-02T15:06:33;16.40;99.90
1994;DHT22;998;49.906;10.908;2024-03-02T15:09:00;16.70;99.90
1994;DHT22;998;49.906;10.908;2024-03-02T15:11:28;17.70;99.90
1994;DHT22;998;49.906;10.908;2024-03-02T15:14:09;16.80;99.90
1994;DHT22;998;49.906;10.908;2024-03-02T15:16:38;17.00;99.90
1994;DHT22;998;49.906;10.908;2024-03-02T15:19:07;17.00;99.90
1994;DHT22;998;49.906;10.908;2024-03-02T15:21:35;17.10;99.90
1994;DHT22;998;49.906;10.908;2024-03-02T15:24:02;17.40;99.90
1994;DHT22;998;49.906;10.908;2024-03-02T15:26:30;16.90;99.90
1994;DHT22;998;49.906;10.908;2024-03-02T15:28:57;17.00;99.90
1994;DHT22;998;49.906;10.908;2024-03-02T15:31:26;16.90;99.90
1994;DHT22;998;49.906;10.908;2024-03-02T15:33:54;16.80;99.90
1994;DHT22;998;49.906;10.908;2024-03-02T15:36:22;16.60;99.90
1994;DHT22;998;49.906;10.908;2024-03-02T15:38:50;17.30;99.90
1994;DHT22;998;49.906;10.908;2024-03-02T15:41:17;16.40;99.90
1994;DHT22;998;49.906;10.908;2024-03-02T15:43:44;16.40;99.90
1994;DHT22;998;49.906;10.908;2024-03-02T15:46:15;16.30;99.90
1994;DHT22;998;49.906;10.908;2024-03-02T15:48:44;16.20;99.90
1994;DHT22;998;49.906;10.908;2024-03-02T15:51:17;17.10;99.90
1994;DHT22;998;49.906;10.908;2024-03-02T15:53:44;15.20;99.90
1994;DHT22;998;49.906;10.908;2024-03-02T15:56:11;15.60;99.90
1994;DHT22;998;49.906;10.908;2024-03-02T15:58:39;15.30;99.90
1994;DHT22;998;49.906;10.908;2024-03-02T16:01:06;15.30;99.90
1994;DHT22;998;49.906;10.908;2024-03-02T16:03:34;15.50;99.90
1994;DHT22;998;49.906;10.908;2024-03-02T16:06:03;15.40;99.90
1994;DHT22;998;49.906;10.908;2024-03-02T16:08:30;15.40;99.90
1994;DHT22;998;49.906;10.908;2024-03-02T16:10:58;15.30;99.90
1994;DHT22;998;49.906;10.908;2024-03-02T16:13:25;15.10;99.90
1994;DHT22;998;49.906;10.908;2024-03-02T16:15:53;14.70;99.90
1994;DHT22;998;49.906;10.908;2024-03-02T16:18:20;14.90;99.90
1994;DHT22;998;49.906;10.908;2024-03-02T16:20:47;14.80;99.90
1994;DHT22;998;49.906;10.908;2024-03-02T16:23:16;14.50;99.90
1994;DHT22;998;49.906;10.908;2024-03-02T16:25:44;14.60;99.90